createdAt,value
2023-07-10T00:01:00.419Z,6.95
2023-07-10T00:02:02.179Z,8.65
2023-07-10T00:03:05.829Z,8.82
2023-07-10T00:04:15.559Z,8.13
2023-07-10T00:05:21.522Z,10.05
2023-07-10T00:06:23.607Z,7.15
2023-07-10T00:07:25.219Z,8.98
2023-07-10T00:08:27.427Z,7.65
2023-07-10T00:09:29.048Z,7.72
2023-07-10T00:10:31.429Z,8.07
2023-07-10T00:11:33.455Z,8.68
2023-07-10T00:12:35.078Z,7.57
2023-07-10T00:13:36.702Z,9.48
2023-07-10T00:14:38.396Z,9.57
2023-07-10T00:15:41.111Z,10.75
2023-07-10T00:16:44.196Z,7.05
2023-07-10T00:17:47.043Z,9.57
2023-07-10T00:18:49.437Z,9.45
2023-07-10T00:19:51.120Z,8.70
2023-07-10T00:20:52.816Z,9.85
2023-07-10T00:21:54.401Z,9.68
2023-07-10T00:22:56.001Z,10.98
2023-07-10T00:23:57.624Z,9.32
2023-07-10T00:24:59.210Z,7.88
2023-07-10T00:26:00.961Z,9.25
2023-07-10T00:27:03.035Z,8.35
2023-07-10T00:28:13.784Z,9.70
2023-07-10T00:29:21.605Z,9.77
2023-07-10T00:30:26.096Z,9.98
2023-07-10T00:31:27.815Z,7.97
2023-07-10T00:32:30.778Z,8.85
2023-07-10T00:33:32.437Z,9.80
2023-07-10T00:34:34.173Z,11.90
2023-07-10T00:35:35.870Z,7.93
2023-07-10T00:36:38.892Z,7.75
2023-07-10T00:37:40.496Z,8.15
2023-07-10T00:38:42.923Z,9.13
2023-07-10T00:39:44.619Z,7.22
2023-07-10T00:40:47.050Z,7.90
2023-07-10T00:41:53.691Z,7.90
2023-07-10T00:43:02.462Z,8.88
2023-07-10T00:44:05.864Z,8.65
2023-07-10T00:45:13.254Z,7.47
2023-07-10T00:46:20.415Z,8.75
2023-07-10T00:47:26.675Z,9.88
2023-07-10T00:48:37.359Z,7.90
2023-07-10T00:49:45.017Z,9.27
2023-07-10T00:50:48.467Z,9.27
2023-07-10T00:51:59.273Z,8.48
2023-07-10T00:53:02.951Z,9.73
2023-07-10T00:55:20.084Z,9.88
2023-07-10T00:56:22.821Z,8.40
2023-07-10T00:57:28.612Z,7.63
2023-07-10T00:58:35.161Z,8.50
2023-07-10T00:59:40.056Z,13.07
2023-07-10T01:01:00.247Z,7.93
2023-07-10T01:02:20.597Z,7.13
2023-07-10T01:03:22.230Z,8.10
2023-07-10T01:04:25.149Z,7.53
2023-07-10T01:05:30.000Z,10.38
2023-07-10T01:06:33.886Z,9.55
2023-07-10T01:07:40.869Z,6.57
2023-07-10T01:08:47.539Z,9.63
2023-07-10T01:09:53.056Z,15.30
2023-07-10T01:10:54.800Z,8.60
2023-07-10T01:11:56.435Z,8.10
2023-07-10T01:12:58.001Z,10.07
2023-07-10T01:14:01.695Z,9.40
2023-07-10T01:15:07.590Z,8.27
2023-07-10T01:16:09.859Z,8.70
2023-07-10T01:17:11.913Z,10.50
2023-07-10T01:18:13.643Z,8.73
2023-07-10T01:19:24.085Z,12.23
2023-07-10T01:20:32.892Z,10.20
2023-07-10T01:21:39.618Z,8.50
2023-07-10T01:22:41.313Z,10.70
2023-07-10T01:23:43.025Z,8.75
2023-07-10T01:24:44.817Z,9.90
2023-07-10T01:25:52.401Z,9.70
2023-07-10T01:26:54.974Z,9.40
2023-07-10T01:27:56.612Z,9.52
2023-07-10T01:28:59.559Z,10.45
2023-07-10T01:30:05.187Z,11.70
2023-07-10T01:31:09.764Z,10.02
2023-07-10T01:32:14.308Z,9.30
2023-07-10T01:34:23.609Z,7.97
2023-07-10T01:35:29.092Z,8.13
2023-07-10T01:36:35.698Z,8.93
2023-07-10T01:37:38.716Z,11.18
2023-07-10T01:38:45.268Z,9.48
2023-07-10T01:39:49.135Z,9.07
2023-07-10T01:40:54.538Z,9.55
2023-07-10T01:41:56.114Z,9.32
2023-07-10T01:42:59.229Z,7.97
2023-07-10T01:44:01.091Z,9.25
2023-07-10T01:45:09.270Z,9.90
2023-07-10T01:46:18.961Z,11.60
2023-07-10T01:47:21.026Z,10.25
2023-07-10T01:48:28.300Z,9.98
2023-07-10T01:49:31.962Z,10.60
2023-07-10T01:51:36.125Z,11.25
2023-07-10T01:52:39.148Z,9.75
2023-07-10T01:53:44.358Z,10.80
2023-07-10T01:54:45.949Z,10.77
2023-07-10T01:55:48.431Z,8.73
2023-07-10T01:56:50.465Z,8.48
2023-07-10T01:57:52.070Z,9.75
2023-07-10T01:58:53.687Z,8.02
2023-07-10T01:59:55.302Z,8.07
2023-07-10T02:00:57.218Z,8.13
2023-07-10T02:01:59.895Z,9.40
2023-07-10T02:03:01.674Z,11.05
2023-07-10T02:04:04.295Z,10.18
2023-07-10T02:05:09.322Z,10.95
2023-07-10T02:06:11.457Z,9.48
2023-07-10T02:07:13.103Z,10.77
2023-07-10T02:08:16.377Z,9.93
2023-07-10T02:09:18.076Z,13.75
2023-07-10T02:10:22.494Z,10.68
2023-07-10T02:11:28.321Z,8.48
2023-07-10T02:12:30.019Z,8.15
2023-07-10T02:13:31.830Z,10.65
2023-07-10T02:14:33.730Z,8.07
2023-07-10T02:15:35.358Z,8.25
2023-07-10T02:16:37.176Z,12.75
2023-07-10T02:17:39.260Z,9.82
2023-07-10T02:18:41.628Z,9.43
2023-07-10T02:19:43.262Z,9.15
2023-07-10T02:20:44.851Z,9.10
2023-07-10T02:21:47.246Z,11.68
2023-07-10T02:22:49.219Z,10.02
2023-07-10T02:23:52.194Z,9.38
2023-07-10T02:24:53.797Z,9.15
2023-07-10T02:25:55.552Z,8.57
2023-07-10T02:26:57.279Z,7.90
2023-07-10T02:27:58.880Z,7.68
2023-07-10T02:29:00.890Z,8.95
2023-07-10T02:30:02.678Z,11.20
2023-07-10T02:31:05.245Z,10.18
2023-07-10T02:32:08.217Z,8.02
2023-07-10T02:33:09.921Z,8.90
2023-07-10T02:34:11.496Z,9.18
2023-07-10T02:35:13.128Z,11.20
2023-07-10T02:36:15.607Z,10.13
2023-07-10T02:37:17.340Z,10.15
2023-07-10T02:38:19.054Z,10.35
2023-07-10T02:39:22.029Z,9.63
2023-07-10T02:40:23.742Z,8.82
2023-07-10T02:41:25.626Z,13.10
2023-07-10T02:42:29.800Z,9.43
2023-07-10T02:43:32.065Z,12.50
2023-07-10T02:44:33.928Z,11.88
2023-07-10T02:45:36.512Z,10.27
2023-07-10T02:46:38.212Z,11.15
2023-07-10T02:47:40.196Z,10.00
2023-07-10T02:48:41.831Z,10.18
2023-07-10T02:49:43.485Z,9.50
2023-07-10T02:50:45.165Z,8.90
2023-07-10T02:51:46.801Z,10.13
2023-07-10T02:52:48.406Z,10.65
2023-07-10T02:53:52.201Z,9.13
2023-07-10T02:54:55.188Z,10.98
2023-07-10T02:55:56.830Z,12.30
2023-07-10T02:56:58.497Z,8.73
2023-07-10T02:58:00.936Z,11.38
2023-07-10T02:59:02.728Z,8.48
2023-07-10T03:00:06.095Z,7.65
2023-07-10T03:01:07.785Z,11.10
2023-07-10T03:02:09.479Z,10.65
2023-07-10T03:03:11.102Z,10.05
2023-07-10T03:04:15.113Z,9.77
2023-07-10T03:05:16.876Z,8.93
2023-07-10T03:06:18.579Z,9.10
2023-07-10T03:07:20.190Z,10.52
2023-07-10T03:08:21.915Z,8.18
2023-07-10T03:09:23.581Z,8.38
2023-07-10T03:10:26.612Z,9.45
2023-07-10T03:11:28.218Z,10.48
2023-07-10T03:12:30.009Z,9.50
2023-07-10T03:13:31.875Z,9.25
2023-07-10T03:14:33.671Z,8.75
2023-07-10T03:15:35.285Z,12.50
2023-07-10T03:16:37.066Z,8.98
2023-07-10T03:18:42.432Z,8.77
2023-07-10T03:19:44.573Z,7.70
2023-07-10T03:20:46.195Z,9.80
2023-07-10T03:21:48.801Z,9.88
2023-07-10T03:22:50.817Z,10.75
2023-07-10T03:23:52.819Z,13.00
2023-07-10T03:24:54.847Z,9.93
2023-07-10T03:25:57.947Z,9.98
2023-07-10T03:26:59.599Z,8.43
2023-07-10T03:28:01.392Z,9.30
2023-07-10T03:29:06.167Z,9.95
2023-07-10T03:30:09.116Z,8.70
2023-07-10T03:31:10.819Z,8.50
2023-07-10T03:32:12.589Z,9.90
2023-07-10T03:33:15.701Z,8.25
2023-07-10T03:34:18.957Z,10.23
2023-07-10T03:35:25.412Z,10.30
2023-07-10T03:36:29.151Z,9.05
2023-07-10T03:38:32.444Z,9.40
2023-07-10T03:39:34.082Z,13.20
2023-07-10T03:40:35.862Z,7.90
2023-07-10T03:41:38.985Z,9.50
2023-07-10T03:42:40.578Z,9.73
2023-07-10T03:43:42.305Z,9.35
2023-07-10T03:44:43.889Z,8.70
2023-07-10T03:45:45.553Z,11.77
2023-07-10T03:46:47.409Z,8.85
2023-07-10T03:47:49.158Z,12.38
2023-07-10T03:48:50.966Z,15.98
2023-07-10T03:49:52.582Z,11.23
2023-07-10T03:50:54.260Z,12.50
2023-07-10T03:51:55.966Z,9.77
2023-07-10T03:52:57.720Z,9.82
2023-07-10T03:53:59.485Z,9.18
2023-07-10T03:55:01.088Z,8.23
2023-07-10T03:56:03.578Z,8.45
2023-07-10T03:57:07.400Z,9.20
2023-07-10T03:58:19.362Z,12.50
2023-07-10T03:59:21.032Z,10.05
2023-07-10T04:00:22.787Z,9.68
2023-07-10T04:01:24.523Z,10.55
2023-07-10T04:02:26.292Z,9.35
2023-07-10T04:03:29.610Z,9.68
2023-07-10T04:04:31.276Z,9.10
2023-07-10T04:05:32.931Z,12.52
2023-07-10T04:06:34.751Z,9.63
2023-07-10T04:07:36.557Z,9.50
2023-07-10T04:08:40.521Z,8.63
2023-07-10T04:09:42.213Z,9.10
2023-07-10T04:10:49.408Z,10.20
2023-07-10T04:11:51.082Z,9.82
2023-07-10T04:12:54.075Z,10.15
2023-07-10T04:13:55.729Z,8.50
2023-07-10T04:14:57.508Z,8.93
2023-07-10T04:16:00.953Z,10.05
2023-07-10T04:17:02.757Z,11.32
2023-07-10T04:18:04.716Z,10.13
2023-07-10T04:19:06.376Z,9.63
2023-07-10T04:20:09.053Z,10.15
2023-07-10T04:21:16.628Z,11.85
2023-07-10T04:22:18.255Z,9.88
2023-07-10T04:23:19.911Z,15.95
2023-07-10T04:24:21.776Z,9.32
2023-07-10T04:25:23.493Z,12.95
2023-07-10T04:26:26.936Z,9.27
2023-07-10T04:27:28.654Z,13.32
2023-07-10T04:28:31.629Z,10.55
2023-07-10T04:29:33.237Z,12.02
2023-07-10T04:30:35.252Z,10.57
2023-07-10T04:31:37.137Z,11.00
2023-07-10T04:32:38.848Z,11.55
2023-07-10T04:33:40.702Z,11.88
2023-07-10T04:34:42.387Z,11.63
2023-07-10T04:35:44.955Z,13.40
2023-07-10T04:36:46.555Z,9.75
2023-07-10T04:37:48.236Z,12.27
2023-07-10T04:38:50.893Z,12.30
2023-07-10T04:39:53.416Z,10.90
2023-07-10T04:40:56.081Z,10.00
2023-07-10T04:41:57.738Z,9.95
2023-07-10T04:42:59.328Z,13.80
2023-07-10T04:44:02.270Z,12.65
2023-07-10T04:45:05.299Z,11.55
2023-07-10T04:46:09.910Z,12.93
2023-07-10T04:47:11.874Z,11.18
2023-07-10T04:48:13.834Z,12.15
2023-07-10T04:49:15.530Z,12.48
2023-07-10T04:50:19.325Z,11.52
2023-07-10T04:51:21.252Z,15.43
2023-07-10T04:52:22.954Z,11.65
2023-07-10T04:53:24.561Z,13.32
2023-07-10T04:54:26.196Z,12.10
2023-07-10T04:55:29.132Z,12.30
2023-07-10T04:56:30.847Z,9.73
2023-07-10T04:57:32.566Z,9.57
2023-07-10T04:58:49.050Z,11.30
2023-07-10T04:59:52.074Z,11.50
2023-07-10T05:00:56.712Z,11.63
2023-07-10T05:01:58.387Z,10.85
2023-07-10T05:03:00.153Z,13.57
2023-07-10T05:04:02.829Z,11.60
2023-07-10T05:05:05.288Z,11.77
2023-07-10T05:06:07.239Z,15.38
2023-07-10T05:07:10.996Z,12.10
2023-07-10T05:09:17.621Z,12.93
2023-07-10T05:10:19.307Z,10.68
2023-07-10T05:11:23.312Z,12.80
2023-07-10T05:12:25.121Z,15.25
2023-07-10T05:13:28.832Z,13.57
2023-07-10T05:14:30.511Z,12.93
2023-07-10T05:15:33.414Z,14.63
2023-07-10T05:16:35.058Z,13.82
2023-07-10T05:17:36.707Z,12.85
2023-07-10T05:18:38.360Z,11.27
2023-07-10T05:19:40.092Z,17.80
2023-07-10T05:20:44.979Z,22.33
2023-07-10T05:21:46.659Z,13.13
2023-07-10T05:22:48.348Z,11.93
2023-07-10T05:23:50.056Z,14.43
2023-07-10T05:24:52.643Z,12.60
2023-07-10T05:25:55.964Z,12.07
2023-07-10T05:26:57.607Z,13.20
2023-07-10T05:27:59.341Z,11.18
2023-07-10T05:29:01.094Z,13.10
2023-07-10T05:30:02.799Z,11.93
2023-07-10T05:31:07.747Z,15.38
2023-07-10T05:32:09.956Z,12.18
2023-07-10T05:33:11.741Z,11.25
2023-07-10T05:34:13.372Z,11.20
2023-07-10T05:35:15.249Z,10.70
2023-07-10T05:36:17.402Z,13.38
2023-07-10T05:37:19.066Z,12.10
2023-07-10T05:38:21.810Z,10.88
2023-07-10T05:39:23.482Z,12.85
2023-07-10T05:40:25.190Z,13.20
2023-07-10T05:41:28.563Z,13.35
2023-07-10T05:42:30.250Z,13.27
2023-07-10T05:43:33.224Z,20.15
2023-07-10T05:44:34.897Z,15.82
2023-07-10T05:45:36.710Z,15.57
2023-07-10T05:46:39.817Z,14.63
2023-07-10T05:47:41.657Z,19.33
2023-07-10T05:48:43.278Z,18.33
2023-07-10T05:49:44.959Z,14.65
2023-07-10T05:50:48.121Z,15.68
2023-07-10T05:51:49.767Z,14.63
2023-07-10T05:52:51.400Z,14.35
2023-07-10T05:53:52.960Z,14.77
2023-07-10T05:54:54.610Z,16.65
2023-07-10T05:55:57.533Z,16.77
2023-07-10T05:56:59.501Z,14.88
2023-07-10T05:58:01.203Z,15.85
2023-07-10T05:59:03.083Z,14.07
2023-07-10T06:00:06.198Z,18.25
2023-07-10T06:01:07.945Z,14.90
2023-07-10T06:02:11.737Z,13.88
2023-07-10T06:03:14.695Z,15.98
2023-07-10T06:04:16.714Z,15.90
2023-07-10T06:05:18.327Z,15.10
2023-07-10T06:06:20.284Z,13.43
2023-07-10T06:07:22.046Z,14.13
2023-07-10T06:08:24.409Z,15.45
2023-07-10T06:09:26.029Z,16.73
2023-07-10T06:10:27.724Z,13.88
2023-07-10T06:11:29.411Z,19.17
2023-07-10T06:12:31.048Z,15.77
2023-07-10T06:13:32.968Z,16.23
2023-07-10T06:14:34.633Z,19.05
2023-07-10T06:15:36.248Z,16.48
2023-07-10T06:16:37.960Z,15.23
2023-07-10T06:17:41.004Z,15.82
2023-07-10T06:18:42.592Z,14.98
2023-07-10T06:19:44.306Z,14.85
2023-07-10T06:20:52.526Z,16.20
2023-07-10T06:22:05.493Z,14.82
2023-07-10T06:23:07.429Z,15.15
2023-07-10T06:24:10.103Z,14.40
2023-07-10T06:25:12.285Z,15.50
2023-07-10T06:26:14.089Z,16.45
2023-07-10T06:27:17.140Z,14.18
2023-07-10T06:28:19.824Z,18.33
2023-07-10T06:29:21.468Z,17.25
2023-07-10T06:30:23.797Z,15.35
2023-07-10T06:31:27.047Z,17.35
2023-07-10T06:33:33.177Z,19.63
2023-07-10T06:34:34.908Z,15.20
2023-07-10T06:35:40.421Z,13.82
2023-07-10T06:36:42.370Z,16.50
2023-07-10T06:37:44.938Z,18.38
2023-07-10T06:38:46.493Z,15.93
2023-07-10T06:40:07.591Z,16.20
2023-07-10T06:41:09.369Z,13.95
2023-07-10T06:42:14.927Z,16.08
2023-07-10T06:43:21.782Z,17.30
2023-07-10T06:44:23.414Z,14.63
2023-07-10T06:45:25.146Z,13.40
2023-07-10T06:46:26.951Z,13.43
2023-07-10T06:47:32.209Z,13.05
2023-07-10T06:48:35.268Z,13.63
2023-07-10T06:49:37.136Z,12.38
2023-07-10T06:50:39.083Z,16.88
2023-07-10T06:51:40.757Z,14.32
2023-07-10T06:52:44.296Z,14.00
2023-07-10T06:53:45.963Z,18.75
2023-07-10T06:54:47.791Z,12.07
2023-07-10T06:55:53.194Z,15.98
2023-07-10T06:56:54.812Z,11.52
2023-07-10T06:57:56.418Z,12.73
2023-07-10T06:58:58.027Z,15.30
2023-07-10T07:00:01.228Z,14.52
2023-07-10T07:01:04.365Z,14.38
2023-07-10T07:02:07.859Z,12.10
2023-07-10T07:03:09.787Z,13.10
2023-07-10T07:04:12.957Z,12.60
2023-07-10T07:05:15.088Z,12.15
2023-07-10T07:06:16.902Z,12.20
2023-07-10T07:07:18.733Z,12.80
2023-07-10T07:08:21.253Z,16.45
2023-07-10T07:09:23.313Z,13.18
2023-07-10T07:10:25.042Z,12.20
2023-07-10T07:11:26.820Z,14.73
2023-07-10T07:12:28.603Z,13.38
2023-07-10T07:13:30.240Z,12.35
2023-07-10T07:14:32.349Z,13.75
2023-07-10T07:15:34.072Z,12.82
2023-07-10T07:16:35.919Z,13.00
2023-07-10T07:17:40.778Z,13.57
2023-07-10T07:18:42.552Z,13.27
2023-07-10T07:19:47.002Z,14.75
2023-07-10T07:20:49.575Z,13.77
2023-07-10T07:21:51.239Z,13.65
2023-07-10T07:22:52.934Z,14.82
2023-07-10T07:23:54.797Z,14.18
2023-07-10T07:24:56.418Z,16.92
2023-07-10T07:25:58.690Z,17.02
2023-07-10T07:27:00.333Z,11.88
2023-07-10T07:28:02.076Z,15.10
2023-07-10T07:29:03.971Z,15.75
2023-07-10T07:30:07.747Z,13.50
2023-07-10T07:31:09.393Z,14.05
2023-07-10T07:32:11.852Z,13.50
2023-07-10T07:33:13.680Z,17.73
2023-07-10T07:34:15.280Z,14.23
2023-07-10T07:35:18.431Z,10.77
2023-07-10T07:36:20.113Z,12.50
2023-07-10T07:37:21.870Z,14.27
2023-07-10T07:38:23.670Z,12.90
2023-07-10T07:39:26.137Z,12.77
2023-07-10T07:40:28.121Z,11.73
2023-07-10T07:41:31.103Z,13.00
2023-07-10T07:42:34.318Z,13.13
2023-07-10T07:43:36.043Z,12.55
2023-07-10T07:44:37.882Z,14.50
2023-07-10T07:45:39.594Z,12.80
2023-07-10T07:46:41.192Z,14.75
2023-07-10T07:47:43.395Z,11.98
2023-07-10T07:48:45.210Z,12.20
2023-07-10T07:49:46.945Z,14.13
2023-07-10T07:50:58.340Z,13.52
2023-07-10T07:52:00.369Z,15.65
2023-07-10T07:53:01.982Z,13.82
2023-07-10T07:54:06.848Z,13.73
2023-07-10T07:55:09.209Z,13.02
2023-07-10T07:56:11.465Z,15.05
2023-07-10T07:57:13.254Z,16.73
2023-07-10T07:58:15.042Z,14.98
2023-07-10T07:59:16.838Z,11.23
2023-07-10T08:00:21.674Z,12.80
2023-07-10T08:01:23.956Z,12.13
2023-07-10T08:02:25.554Z,13.45
2023-07-10T08:03:27.687Z,12.02
2023-07-10T08:04:29.465Z,12.65
2023-07-10T08:05:36.007Z,12.43
2023-07-10T08:06:40.812Z,12.38
2023-07-10T08:07:43.442Z,15.75
2023-07-10T08:08:45.591Z,11.13
2023-07-10T08:09:47.507Z,13.70
2023-07-10T08:10:50.755Z,12.65
2023-07-10T08:11:54.196Z,12.13
2023-07-10T08:12:55.857Z,12.63
2023-07-10T08:13:57.598Z,12.65
2023-07-10T08:15:02.598Z,13.73
2023-07-10T08:16:04.905Z,11.93
2023-07-10T08:17:07.479Z,12.93
2023-07-10T08:18:09.635Z,11.48
2023-07-10T08:19:11.215Z,12.15
2023-07-10T08:20:13.325Z,14.15
2023-07-10T08:21:16.397Z,15.27
2023-07-10T08:22:19.461Z,11.93
2023-07-10T08:23:21.051Z,12.10
2023-07-10T08:24:22.690Z,11.77
2023-07-10T08:25:24.395Z,14.55
2023-07-10T08:26:26.233Z,12.45
2023-07-10T08:27:28.085Z,13.70
2023-07-10T08:28:29.712Z,13.32
2023-07-10T08:29:32.630Z,16.50
2023-07-10T08:30:34.334Z,13.43
2023-07-10T08:31:35.985Z,13.98
2023-07-10T08:32:37.811Z,13.90
2023-07-10T08:33:39.401Z,13.55
2023-07-10T08:34:40.994Z,15.55
2023-07-10T08:35:42.661Z,15.05
2023-07-10T08:36:44.272Z,19.40
2023-07-10T08:37:49.045Z,13.68
2023-07-10T08:38:50.665Z,16.83
2023-07-10T08:39:52.882Z,15.95
2023-07-10T08:40:57.622Z,13.43
2023-07-10T08:42:03.192Z,13.80
2023-07-10T08:43:18.147Z,19.00
2023-07-10T08:44:19.987Z,15.02
2023-07-10T08:45:32.886Z,14.95
2023-07-10T08:46:34.679Z,14.45
2023-07-10T08:47:40.272Z,14.85
2023-07-10T08:48:47.612Z,12.32
2023-07-10T08:49:54.136Z,14.13
2023-07-10T08:51:01.628Z,14.77
2023-07-10T08:52:08.015Z,13.27
2023-07-10T08:53:12.857Z,14.63
2023-07-10T08:54:16.737Z,14.73
2023-07-10T08:55:26.660Z,12.40
2023-07-10T08:56:32.006Z,14.77
2023-07-10T08:57:36.478Z,12.52
2023-07-10T08:58:39.369Z,12.25
2023-07-10T08:59:49.167Z,12.55
2023-07-10T09:00:54.814Z,13.13
2023-07-10T09:01:58.051Z,13.32
2023-07-10T09:03:06.206Z,12.80
2023-07-10T09:04:14.167Z,13.32
2023-07-10T09:05:22.017Z,14.05
2023-07-10T09:06:34.177Z,13.35
2023-07-10T09:07:39.957Z,13.90
2023-07-10T09:08:44.062Z,12.43
2023-07-10T09:09:50.453Z,13.02
2023-07-10T09:10:55.511Z,11.88
2023-07-10T09:12:00.005Z,11.38
2023-07-10T09:13:02.420Z,10.55
2023-07-10T09:14:21.500Z,13.40
2023-07-10T09:15:25.042Z,12.30
2023-07-10T09:17:36.963Z,12.63
2023-07-10T09:18:47.599Z,11.55
2023-07-10T09:19:53.965Z,11.98
2023-07-10T09:21:00.273Z,12.52
2023-07-10T09:22:02.061Z,13.07
2023-07-10T09:23:05.582Z,14.43
2023-07-10T09:24:15.196Z,12.13
2023-07-10T09:25:16.981Z,13.27
2023-07-10T09:26:20.611Z,13.20
2023-07-10T09:27:22.264Z,13.50
2023-07-10T09:28:24.928Z,12.90
2023-07-10T09:29:32.137Z,10.73
2023-07-10T09:30:52.486Z,12.43
2023-07-10T09:31:57.632Z,10.57
2023-07-10T09:33:03.536Z,14.63
2023-07-10T09:34:05.447Z,12.10
2023-07-10T09:35:07.440Z,12.65
2023-07-10T09:36:16.951Z,11.23
2023-07-10T09:37:21.062Z,10.90
2023-07-10T09:38:22.794Z,11.40
2023-07-10T09:39:28.328Z,11.95
2023-07-10T09:40:37.793Z,11.25
2023-07-10T09:41:39.501Z,12.10
2023-07-10T09:42:42.308Z,10.70
2023-07-10T09:43:50.593Z,11.50
2023-07-10T09:44:56.794Z,11.00
2023-07-10T09:46:00.185Z,11.50
2023-07-10T09:47:08.126Z,11.55
2023-07-10T09:48:24.661Z,10.77
2023-07-10T09:49:35.310Z,12.45
2023-07-10T09:50:37.173Z,11.23
2023-07-10T09:51:48.256Z,13.70
2023-07-10T09:52:55.331Z,10.43
2023-07-10T09:54:01.711Z,10.13
2023-07-10T09:55:15.283Z,10.63
2023-07-10T09:56:23.067Z,10.73
2023-07-10T09:57:24.714Z,12.45
2023-07-10T09:58:27.267Z,11.68
2023-07-10T09:59:32.817Z,12.45
2023-07-10T10:00:43.401Z,11.40
2023-07-10T10:01:47.841Z,13.25
2023-07-10T10:02:56.337Z,11.48
2023-07-10T10:03:58.475Z,12.15
2023-07-10T10:05:09.332Z,11.73
2023-07-10T10:06:20.937Z,13.15
2023-07-10T10:07:22.806Z,14.13
2023-07-10T10:08:27.396Z,12.45
2023-07-10T10:09:29.605Z,12.32
2023-07-10T10:10:34.232Z,12.57
2023-07-10T10:11:40.192Z,11.98
2023-07-10T10:12:42.282Z,12.07
2023-07-10T10:13:48.575Z,12.77
2023-07-10T10:14:54.141Z,11.85
2023-07-10T10:16:01.154Z,13.30
2023-07-10T10:17:08.033Z,11.95
2023-07-10T10:18:20.460Z,13.02
2023-07-10T10:19:26.456Z,12.73
2023-07-10T10:20:31.233Z,12.18
2023-07-10T10:21:35.680Z,13.10
2023-07-10T10:22:37.293Z,12.52
2023-07-10T10:23:41.104Z,13.15
2023-07-10T10:24:43.273Z,13.10
2023-07-10T10:25:47.722Z,12.65
2023-07-10T10:27:16.959Z,14.30
2023-07-10T10:28:30.568Z,12.43
2023-07-10T10:30:00.411Z,11.90
2023-07-10T10:31:08.336Z,12.27
2023-07-10T10:32:21.742Z,11.65
2023-07-10T10:33:31.022Z,12.02
2023-07-10T10:34:41.612Z,13.32
2023-07-10T10:35:54.618Z,11.57
2023-07-10T10:37:09.568Z,12.50
2023-07-10T10:38:28.901Z,13.07
2023-07-10T10:39:37.583Z,12.95
2023-07-10T10:40:48.590Z,12.60
2023-07-10T10:41:56.275Z,12.38
2023-07-10T10:43:05.445Z,11.82
2023-07-10T10:44:17.372Z,12.20
2023-07-10T10:45:24.988Z,14.80
2023-07-10T10:46:38.078Z,12.13
2023-07-10T10:47:48.906Z,12.50
2023-07-10T10:49:02.772Z,14.23
2023-07-10T10:50:20.041Z,13.25
2023-07-10T10:51:29.792Z,12.18
2023-07-10T10:52:40.203Z,13.73
2023-07-10T10:53:49.909Z,12.00
2023-07-10T10:55:07.503Z,10.90
2023-07-10T10:56:21.965Z,11.60
2023-07-10T10:57:36.273Z,12.35
2023-07-10T10:58:50.894Z,12.60
2023-07-10T11:00:02.597Z,11.65
2023-07-10T11:01:32.834Z,12.25
2023-07-10T11:02:53.628Z,12.60
2023-07-10T11:04:00.933Z,15.55
2023-07-10T11:05:13.642Z,13.77
2023-07-10T11:06:34.264Z,12.38
2023-07-10T11:07:38.591Z,12.27
2023-07-10T11:08:45.757Z,11.63
2023-07-10T11:09:51.164Z,13.10
2023-07-10T11:10:54.818Z,14.30
2023-07-10T11:11:58.622Z,11.90
2023-07-10T11:13:04.417Z,13.18
2023-07-10T11:14:06.359Z,12.00
2023-07-10T11:15:17.408Z,11.93
2023-07-10T11:16:21.963Z,13.35
2023-07-10T11:17:24.427Z,12.40
2023-07-10T11:18:26.623Z,12.88
2023-07-10T11:19:31.331Z,13.02
2023-07-10T11:20:33.445Z,12.65
2023-07-10T11:21:35.097Z,12.95
2023-07-10T11:22:36.685Z,11.43
2023-07-10T11:23:47.302Z,12.60
2023-07-10T11:24:50.604Z,10.55
2023-07-10T11:26:00.189Z,14.38
2023-07-10T11:27:11.264Z,11.55
2023-07-10T11:28:22.692Z,10.68
2023-07-10T11:29:40.054Z,15.48
2023-07-10T11:30:41.654Z,13.68
2023-07-10T11:31:44.007Z,14.75
2023-07-10T11:32:58.094Z,11.07
2023-07-10T11:34:42.231Z,9.88
2023-07-10T11:36:11.897Z,12.20
2023-07-10T11:37:35.046Z,10.85
2023-07-10T11:38:36.958Z,12.63
2023-07-10T11:39:38.668Z,15.18
2023-07-10T11:41:02.563Z,10.02
2023-07-10T11:42:16.905Z,12.98
2023-07-10T11:43:52.725Z,11.35
2023-07-10T11:44:59.776Z,12.43
2023-07-10T11:46:05.533Z,12.07
2023-07-10T11:47:35.710Z,13.35
2023-07-10T11:48:39.020Z,12.50
2023-07-10T11:49:46.382Z,10.95
2023-07-10T11:50:49.609Z,9.98
2023-07-10T11:52:26.521Z,12.13
2023-07-10T11:53:28.116Z,14.23
2023-07-10T11:54:40.124Z,17.75
2023-07-10T11:55:58.177Z,11.07
2023-07-10T11:57:10.941Z,11.88
2023-07-10T11:58:25.166Z,12.15
2023-07-10T11:59:28.067Z,12.20
2023-07-10T12:00:31.658Z,11.52
2023-07-10T12:01:34.401Z,13.10
2023-07-10T12:02:43.259Z,10.68
2023-07-10T12:03:46.093Z,12.55
2023-07-10T12:04:47.929Z,13.43
2023-07-10T12:05:49.530Z,11.75
2023-07-10T12:06:51.223Z,11.65
2023-07-10T12:08:00.572Z,11.25
2023-07-10T12:09:04.829Z,10.60
2023-07-10T12:10:12.103Z,10.35
2023-07-10T12:11:28.341Z,11.65
2023-07-10T12:12:32.649Z,10.13
2023-07-10T12:13:37.866Z,12.02
2023-07-10T12:14:40.955Z,10.88
2023-07-10T12:15:43.149Z,14.02
2023-07-10T12:17:07.398Z,13.45
2023-07-10T12:18:15.941Z,10.98
2023-07-10T12:19:21.654Z,10.98
2023-07-10T12:20:28.301Z,11.57
2023-07-10T12:21:31.676Z,12.10
2023-07-10T12:22:37.555Z,11.38
2023-07-10T12:23:39.216Z,12.73
2023-07-10T12:24:50.709Z,12.38
2023-07-10T12:25:54.406Z,12.65
2023-07-10T12:28:26.007Z,10.93
2023-07-10T12:29:29.782Z,11.82
2023-07-10T12:30:33.510Z,12.27
2023-07-10T12:31:38.288Z,12.43
2023-07-10T12:32:40.164Z,12.32
2023-07-10T12:33:46.347Z,11.57
2023-07-10T12:34:48.412Z,13.27
2023-07-10T12:35:50.817Z,12.07
2023-07-10T12:36:55.213Z,11.77
2023-07-10T12:37:59.883Z,12.80
2023-07-10T12:39:04.933Z,12.55
2023-07-10T12:40:14.532Z,11.82
2023-07-10T12:41:18.932Z,13.73
2023-07-10T12:42:33.602Z,10.90
2023-07-10T12:43:35.353Z,11.50
2023-07-10T12:44:44.490Z,10.43
2023-07-10T12:45:47.548Z,10.82
2023-07-10T12:46:54.758Z,12.10
2023-07-10T12:48:03.647Z,15.75
2023-07-10T12:49:11.851Z,14.40
2023-07-10T12:50:13.607Z,12.38
2023-07-10T12:51:21.574Z,10.75
2023-07-10T12:52:25.938Z,9.63
2023-07-10T12:53:33.460Z,10.85
2023-07-10T12:54:41.154Z,10.55
2023-07-10T12:55:47.440Z,12.02
2023-07-10T12:56:53.742Z,9.25
2023-07-10T12:58:02.275Z,11.98
2023-07-10T12:59:17.884Z,10.15
2023-07-10T13:00:20.437Z,10.38
2023-07-10T13:01:26.543Z,16.00
2023-07-10T13:02:36.214Z,8.65
2023-07-10T13:04:41.915Z,13.05
2023-07-10T13:05:52.793Z,10.48
2023-07-10T13:07:12.511Z,9.82
2023-07-10T13:08:32.858Z,10.38
2023-07-10T13:10:42.305Z,11.52
2023-07-10T13:11:44.737Z,12.98
2023-07-10T13:12:48.289Z,9.45
2023-07-10T13:15:00.118Z,9.65
2023-07-10T13:16:04.540Z,11.13
2023-07-10T13:17:12.031Z,9.30
2023-07-10T13:18:24.411Z,11.82
2023-07-10T13:19:26.515Z,11.68
2023-07-10T13:20:29.932Z,12.32
2023-07-10T13:21:31.550Z,10.20
2023-07-10T13:22:33.218Z,10.18
2023-07-10T13:23:34.981Z,9.65
2023-07-10T13:24:37.070Z,10.52
2023-07-10T13:25:38.714Z,11.23
2023-07-10T13:26:44.290Z,11.45
2023-07-10T13:27:45.884Z,10.02
2023-07-10T13:28:50.220Z,10.45
2023-07-10T13:29:52.024Z,12.25
2023-07-10T13:30:54.574Z,11.75
2023-07-10T13:31:56.467Z,11.35
2023-07-10T13:32:59.495Z,11.68
2023-07-10T13:34:04.415Z,9.52
2023-07-10T13:35:10.033Z,11.02
2023-07-10T13:36:19.987Z,14.27
2023-07-10T13:37:26.383Z,10.50
2023-07-10T13:38:28.801Z,11.00
2023-07-10T13:39:30.389Z,11.45
2023-07-10T13:40:31.968Z,13.20
2023-07-10T13:41:33.536Z,9.35
2023-07-10T13:42:35.155Z,12.10
2023-07-10T13:43:36.899Z,11.15
2023-07-10T13:44:38.501Z,9.60
2023-07-10T13:45:40.197Z,10.57
2023-07-10T13:46:42.338Z,9.98
2023-07-10T13:47:45.833Z,13.63
2023-07-10T13:49:53.236Z,11.60
2023-07-10T13:50:57.886Z,10.02
2023-07-10T13:52:00.896Z,10.90
2023-07-10T13:53:02.677Z,12.60
2023-07-10T13:54:04.254Z,9.38
2023-07-10T13:55:06.621Z,12.88
2023-07-10T13:56:13.619Z,9.27
2023-07-10T13:57:17.803Z,12.70
2023-07-10T13:58:21.479Z,11.07
2023-07-10T13:59:23.097Z,12.80
2023-07-10T14:00:24.891Z,10.90
2023-07-10T14:01:26.765Z,9.40
2023-07-10T14:02:30.902Z,11.68
2023-07-10T14:03:32.717Z,9.43
2023-07-10T14:04:35.943Z,12.98
2023-07-10T14:05:38.165Z,10.90
2023-07-10T14:06:43.916Z,10.55
2023-07-10T14:07:47.977Z,11.48
2023-07-10T14:08:50.901Z,10.30
2023-07-10T14:09:54.005Z,10.65
2023-07-10T14:10:57.722Z,9.48
2023-07-10T14:11:59.362Z,10.20